createdAt,value
2023-10-06T00:03:31.479Z,14.91
2023-10-06T00:06:00.123Z,14.91
2023-10-06T00:08:34.235Z,14.92
2023-10-06T00:11:12.877Z,14.87
2023-10-06T00:13:40.008Z,14.86
2023-10-06T00:16:08.678Z,14.79
2023-10-06T00:18:38.846Z,14.86
2023-10-06T00:21:16.140Z,14.82
2023-10-06T00:23:44.499Z,14.83
2023-10-06T00:26:13.502Z,14.82
2023-10-06T00:28:40.748Z,14.81
2023-10-06T00:31:09.655Z,14.79
2023-10-06T00:33:39.701Z,14.76
2023-10-06T00:36:18.918Z,14.74
2023-10-06T00:38:48.488Z,14.72
2023-10-06T00:41:16.170Z,14.69
2023-10-06T00:43:46.980Z,14.66
2023-10-06T00:46:15.182Z,14.61
2023-10-06T00:48:44.309Z,14.51
2023-10-06T00:51:18.205Z,14.48
2023-10-06T00:53:46.973Z,14.43
2023-10-06T00:56:17.752Z,14.38
2023-10-06T00:58:45.213Z,14.34
2023-10-06T01:01:18.663Z,14.31
2023-10-06T01:03:50.354Z,14.31
2023-10-06T01:06:24.184Z,14.22
2023-10-06T01:08:57.054Z,14.22
2023-10-06T01:11:28.177Z,14.21
2023-10-06T01:13:58.767Z,14.08
2023-10-06T01:16:31.215Z,13.97
2023-10-06T01:19:15.333Z,14.06
2023-10-06T01:21:49.533Z,13.97
2023-10-06T01:24:27.019Z,13.90
2023-10-06T01:26:55.247Z,13.88
2023-10-06T01:29:23.755Z,13.88
2023-10-06T01:31:51.529Z,13.89
2023-10-06T01:34:19.795Z,13.88
2023-10-06T01:36:53.388Z,13.85
2023-10-06T01:39:26.872Z,13.80
2023-10-06T01:41:54.276Z,13.79
2023-10-06T01:44:21.269Z,13.75
2023-10-06T01:46:54.671Z,13.37
2023-10-06T01:49:23.110Z,13.55
2023-10-06T01:54:29.249Z,13.47
2023-10-06T01:56:56.632Z,13.53
2023-10-06T01:59:23.600Z,13.54
2023-10-06T02:01:50.865Z,13.49
2023-10-06T02:04:20.329Z,13.41
2023-10-06T02:06:52.320Z,13.38
2023-10-06T02:09:19.534Z,13.36
2023-10-06T02:11:52.121Z,13.35
2023-10-06T02:14:19.745Z,13.33
2023-10-06T02:16:47.620Z,13.37
2023-10-06T02:19:17.799Z,13.34
2023-10-06T02:21:47.100Z,13.35
2023-10-06T02:24:14.227Z,13.36
2023-10-06T02:26:41.891Z,13.37
2023-10-06T02:29:23.594Z,13.33
2023-10-06T02:31:51.058Z,13.26
2023-10-06T02:34:30.785Z,13.22
2023-10-06T02:36:58.335Z,13.18
2023-10-06T02:39:32.542Z,13.12
2023-10-06T02:42:02.233Z,13.08
2023-10-06T02:44:31.742Z,13.03
2023-10-06T02:47:02.471Z,12.94
2023-10-06T02:49:35.527Z,12.83
2023-10-06T02:52:06.470Z,12.78
2023-10-06T02:54:33.594Z,12.73
2023-10-06T02:57:04.347Z,12.69
2023-10-06T02:59:35.896Z,12.72
2023-10-06T03:02:08.016Z,12.72
2023-10-06T03:04:37.507Z,12.69
2023-10-06T03:07:13.007Z,12.70
2023-10-06T03:09:45.430Z,12.71
2023-10-06T03:12:21.561Z,12.70
2023-10-06T03:14:50.118Z,12.68
2023-10-06T03:17:20.661Z,12.69
2023-10-06T03:20:08.192Z,12.71
2023-10-06T03:22:42.309Z,12.79
2023-10-06T03:25:18.781Z,12.83
2023-10-06T03:27:47.045Z,12.86
2023-10-06T03:30:28.536Z,12.87
2023-10-06T03:32:56.242Z,12.86
2023-10-06T03:35:24.833Z,12.73
2023-10-06T03:38:09.311Z,12.83
2023-10-06T03:40:54.524Z,12.82
2023-10-06T03:43:40.667Z,12.87
2023-10-06T03:46:12.183Z,12.97
2023-10-06T03:48:40.596Z,12.99
2023-10-06T03:51:07.513Z,13.04
2023-10-06T03:53:34.771Z,13.00
2023-10-06T03:56:02.023Z,12.98
2023-10-06T03:58:29.571Z,13.03
2023-10-06T04:00:57.207Z,13.08
2023-10-06T04:03:25.829Z,13.04
2023-10-06T04:05:53.173Z,13.03
2023-10-06T04:08:24.783Z,13.07
2023-10-06T04:10:56.213Z,12.99
2023-10-06T04:13:24.320Z,12.87
2023-10-06T04:15:53.366Z,13.03
2023-10-06T04:18:25.106Z,13.01
2023-10-06T04:20:54.711Z,13.10
2023-10-06T04:23:25.864Z,12.99
2023-10-06T04:25:57.802Z,13.03
2023-10-06T04:28:30.459Z,12.98
2023-10-06T04:31:02.421Z,12.89
2023-10-06T04:33:30.110Z,12.92
2023-10-06T04:36:12.260Z,12.92
2023-10-06T04:38:41.128Z,12.96
2023-10-06T04:41:09.953Z,13.00
2023-10-06T04:43:41.083Z,13.03
2023-10-06T04:46:08.292Z,13.07
2023-10-06T04:48:39.317Z,13.11
2023-10-06T04:51:10.762Z,13.13
2023-10-06T04:53:39.193Z,13.15
2023-10-06T04:56:08.105Z,13.20
2023-10-06T04:58:40.144Z,13.25
2023-10-06T05:01:09.307Z,13.34
2023-10-06T05:03:47.792Z,13.47
2023-10-06T05:06:18.692Z,13.56
2023-10-06T05:08:48.872Z,13.73
2023-10-06T05:11:16.652Z,13.86
2023-10-06T05:13:44.397Z,14.00
2023-10-06T05:16:12.960Z,14.19
2023-10-06T05:18:40.163Z,14.53
2023-10-06T05:21:08.026Z,14.95
2023-10-06T05:23:36.900Z,15.34
2023-10-06T05:26:09.394Z,15.64
2023-10-06T05:28:38.552Z,15.79
2023-10-06T05:31:08.045Z,15.88
2023-10-06T05:33:36.120Z,15.80
2023-10-06T05:36:11.220Z,15.90
2023-10-06T05:38:40.454Z,15.80
2023-10-06T05:41:13.712Z,15.87
2023-10-06T05:43:41.784Z,16.01
2023-10-06T05:46:10.358Z,16.36
2023-10-06T05:48:39.529Z,16.73
2023-10-06T05:51:10.137Z,16.81
2023-10-06T05:53:42.375Z,16.70
2023-10-06T05:56:10.168Z,16.60
2023-10-06T05:58:42.064Z,16.47
2023-10-06T06:01:14.618Z,16.63
2023-10-06T06:03:49.064Z,16.77
2023-10-06T06:06:17.431Z,16.84
2023-10-06T06:08:48.986Z,16.83
2023-10-06T06:11:17.244Z,16.91
2023-10-06T06:13:48.245Z,16.75
2023-10-06T06:16:20.275Z,16.83
2023-10-06T06:18:49.714Z,17.03
2023-10-06T06:21:17.763Z,17.31
2023-10-06T06:23:47.959Z,17.21
2023-10-06T06:26:18.257Z,17.37
2023-10-06T06:28:46.068Z,17.30
2023-10-06T06:31:17.765Z,17.36
2023-10-06T06:33:45.352Z,17.37
2023-10-06T06:36:14.257Z,17.32
2023-10-06T06:38:41.556Z,16.96
2023-10-06T06:41:10.145Z,16.81
2023-10-06T06:43:37.410Z,16.95
2023-10-06T06:46:04.510Z,16.87
2023-10-06T06:48:32.576Z,16.90
2023-10-06T06:50:59.618Z,16.98
2023-10-06T06:53:27.353Z,17.02
2023-10-06T06:55:54.776Z,17.06
2023-10-06T06:58:23.753Z,17.07
2023-10-06T07:00:50.930Z,17.20
2023-10-06T07:03:18.531Z,17.35
2023-10-06T07:05:45.559Z,17.42
2023-10-06T07:08:13.334Z,17.64
2023-10-06T07:10:47.881Z,17.82
2023-10-06T07:13:16.174Z,17.99
2023-10-06T07:15:45.892Z,18.02
2023-10-06T07:18:15.966Z,18.13
2023-10-06T07:20:45.450Z,18.27
2023-10-06T07:23:12.894Z,18.38
2023-10-06T07:25:41.255Z,18.51
2023-10-06T07:28:08.741Z,18.55
2023-10-06T07:30:36.236Z,18.52
2023-10-06T07:33:07.189Z,18.65
2023-10-06T07:35:52.695Z,18.77
2023-10-06T07:38:20.151Z,18.85
2023-10-06T07:40:47.237Z,18.98
2023-10-06T07:43:17.019Z,19.10
2023-10-06T07:45:44.099Z,19.15
2023-10-06T07:48:12.894Z,19.27
2023-10-06T07:50:39.962Z,19.35
2023-10-06T07:53:07.814Z,19.40
2023-10-06T07:55:34.946Z,19.40
2023-10-06T07:58:04.436Z,19.52
2023-10-06T08:00:32.130Z,19.68
2023-10-06T08:03:00.985Z,19.81
2023-10-06T08:05:31.477Z,19.88
2023-10-06T08:08:00.025Z,20.07
2023-10-06T08:10:31.869Z,20.15
2023-10-06T08:13:03.191Z,20.27
2023-10-06T08:15:33.429Z,20.54
2023-10-06T08:18:01.839Z,20.71
2023-10-06T08:20:32.118Z,20.89
2023-10-06T08:23:01.162Z,21.01
2023-10-06T08:25:30.089Z,21.12
2023-10-06T08:28:08.752Z,21.11
2023-10-06T08:30:38.550Z,21.19
2023-10-06T08:33:15.040Z,21.23
2023-10-06T08:35:45.583Z,21.25
2023-10-06T08:38:13.007Z,21.39
2023-10-06T08:40:45.753Z,21.32
2023-10-06T08:43:19.988Z,21.40
2023-10-06T08:45:47.609Z,21.44
2023-10-06T08:48:16.943Z,21.58
2023-10-06T08:50:46.107Z,21.48
2023-10-06T08:53:16.267Z,21.70
2023-10-06T08:55:45.532Z,21.87
2023-10-06T08:58:15.805Z,22.08
2023-10-06T09:00:45.758Z,22.22
2023-10-06T09:03:15.873Z,22.22
2023-10-06T09:05:45.726Z,22.34
2023-10-06T09:08:16.034Z,22.34
2023-10-06T09:10:45.386Z,22.28
2023-10-06T09:13:14.097Z,22.16
2023-10-06T09:15:42.342Z,22.11
2023-10-06T09:18:20.713Z,22.28
2023-10-06T09:20:50.135Z,22.15
2023-10-06T09:23:31.559Z,22.40
2023-10-06T09:25:59.482Z,22.48
2023-10-06T09:28:28.022Z,22.60
2023-10-06T09:31:01.603Z,22.69
2023-10-06T09:33:32.853Z,22.66
2023-10-06T09:36:08.426Z,22.72
2023-10-06T09:38:37.721Z,22.69
2023-10-06T09:41:06.736Z,22.75
2023-10-06T09:43:36.055Z,22.83
2023-10-06T09:46:10.136Z,22.81
2023-10-06T09:48:39.058Z,22.82
2023-10-06T09:51:09.816Z,22.79
2023-10-06T09:53:44.939Z,22.86
2023-10-06T09:56:14.278Z,22.93
2023-10-06T09:58:46.201Z,22.98
2023-10-06T10:01:15.530Z,23.03
2023-10-06T10:03:43.751Z,23.10
2023-10-06T10:06:15.385Z,23.15
2023-10-06T10:08:43.082Z,23.18
2023-10-06T10:11:15.729Z,23.25
2023-10-06T10:14:07.981Z,23.15
2023-10-06T10:16:51.052Z,23.37
2023-10-06T10:19:21.463Z,23.17
2023-10-06T10:21:50.791Z,23.12
2023-10-06T10:25:05.309Z,23.31
2023-10-06T10:27:13.637Z,23.25
2023-10-06T10:29:42.200Z,23.20
2023-10-06T10:32:14.557Z,23.06
2023-10-06T10:35:07.061Z,22.97
2023-10-06T10:37:56.057Z,23.00
2023-10-06T10:40:26.166Z,23.02
2023-10-06T10:43:03.457Z,22.98
2023-10-06T10:45:51.924Z,22.01
2023-10-06T10:48:20.097Z,22.88
2023-10-06T10:50:57.561Z,23.00
2023-10-06T10:53:31.670Z,23.06
2023-10-06T10:56:01.529Z,23.10
2023-10-06T10:58:58.703Z,22.96
2023-10-06T11:01:31.630Z,22.86
2023-10-06T11:04:35.910Z,22.90
2023-10-06T11:07:11.510Z,22.96
2023-10-06T11:09:48.342Z,23.29
2023-10-06T11:12:26.361Z,23.57
2023-10-06T11:14:55.182Z,23.66
2023-10-06T11:17:24.409Z,23.84
2023-10-06T11:20:14.656Z,23.78
2023-10-06T11:22:54.309Z,23.87
2023-10-06T11:25:29.527Z,23.84
2023-10-06T11:28:05.199Z,23.84
2023-10-06T11:30:36.600Z,23.74
2023-10-06T11:33:05.876Z,23.73
2023-10-06T11:35:34.460Z,23.78
2023-10-06T11:38:03.485Z,23.71
2023-10-06T11:40:32.356Z,23.63
2023-10-06T11:43:10.853Z,23.58
2023-10-06T11:45:38.153Z,23.67
2023-10-06T11:48:26.274Z,23.54
2023-10-06T11:51:00.410Z,23.63
2023-10-06T11:53:36.649Z,23.59
2023-10-06T11:56:11.400Z,23.34
2023-10-06T11:58:41.878Z,23.17
2023-10-06T12:01:36.713Z,23.20
2023-10-06T12:04:09.599Z,23.34
2023-10-06T12:06:40.212Z,23.34
2023-10-06T12:09:09.632Z,23.26
2023-10-06T12:11:40.303Z,23.17
2023-10-06T12:14:12.128Z,23.20
2023-10-06T12:16:39.472Z,23.25
2023-10-06T12:19:08.410Z,23.20
2023-10-06T12:21:36.388Z,23.26
2023-10-06T12:24:04.476Z,23.17
2023-10-06T12:26:31.594Z,22.99
2023-10-06T12:29:00.578Z,22.97
2023-10-06T12:31:28.701Z,22.92
2023-10-06T12:34:06.790Z,22.80
2023-10-06T12:36:36.673Z,22.74
2023-10-06T12:39:06.255Z,22.77
2023-10-06T12:41:33.351Z,22.84
2023-10-06T12:44:05.616Z,22.91
2023-10-06T12:46:34.530Z,22.93
2023-10-06T12:49:08.139Z,23.00
2023-10-06T12:51:35.593Z,22.99
2023-10-06T12:54:03.087Z,22.86
2023-10-06T12:56:30.115Z,22.82
2023-10-06T12:58:57.628Z,22.95
2023-10-06T13:01:27.083Z,22.97
2023-10-06T13:03:55.438Z,23.02
2023-10-06T13:06:24.094Z,22.90
2023-10-06T13:08:51.824Z,22.82
2023-10-06T13:11:19.643Z,22.78
2023-10-06T13:13:50.407Z,22.78
2023-10-06T13:16:18.407Z,22.73
2023-10-06T13:18:47.279Z,22.71
2023-10-06T13:21:14.291Z,22.66
2023-10-06T13:23:41.687Z,22.71
2023-10-06T13:26:20.499Z,22.83
2023-10-06T13:28:59.212Z,22.82
2023-10-06T13:31:26.251Z,22.80
2023-10-06T13:33:55.684Z,22.86
2023-10-06T13:36:22.817Z,22.72
2023-10-06T13:38:51.389Z,22.53
2023-10-06T13:41:19.900Z,22.44
2023-10-06T13:43:47.310Z,22.50
2023-10-06T13:46:15.882Z,22.50
2023-10-06T13:48:43.266Z,22.59
2023-10-06T13:51:12.782Z,22.62
2023-10-06T13:53:42.273Z,22.65
2023-10-06T13:56:09.577Z,22.69
2023-10-06T13:58:37.266Z,22.72
2023-10-06T14:01:05.517Z,22.65
2023-10-06T14:03:33.173Z,22.68
2023-10-06T14:06:02.445Z,22.71
2023-10-06T14:08:34.751Z,22.65
2023-10-06T14:11:02.734Z,22.54
2023-10-06T14:13:34.937Z,22.55
2023-10-06T14:16:02.285Z,22.42
2023-10-06T14:18:34.294Z,22.40
2023-10-06T14:21:07.618Z,22.35
2023-10-06T14:23:45.065Z,22.37
2023-10-06T14:26:19.722Z,22.43
2023-10-06T14:28:48.850Z,22.35
2023-10-06T14:31:38.615Z,22.36
2023-10-06T14:34:31.446Z,22.40
2023-10-06T14:37:00.935Z,22.41
2023-10-06T14:39:51.252Z,22.46
2023-10-06T14:42:36.795Z,22.45
2023-10-06T14:45:24.486Z,22.29
2023-10-06T14:47:52.461Z,22.16
2023-10-06T14:50:26.492Z,22.28
2023-10-06T14:52:56.054Z,22.25
2023-10-06T14:55:25.020Z,22.25
2023-10-06T14:57:53.657Z,22.29
2023-10-06T15:00:23.222Z,22.27
2023-10-06T15:02:51.618Z,22.20
2023-10-06T15:05:19.420Z,22.23
2023-10-06T15:07:47.404Z,22.24
2023-10-06T15:10:19.608Z,22.15
2023-10-06T15:12:49.499Z,22.12
2023-10-06T15:15:17.136Z,22.05
2023-10-06T15:17:47.753Z,21.97
2023-10-06T15:20:22.157Z,22.01
2023-10-06T15:22:52.342Z,22.01
2023-10-06T15:25:20.357Z,22.01
2023-10-06T15:27:49.379Z,21.95
2023-10-06T15:30:17.882Z,21.84
2023-10-06T15:32:45.267Z,21.84
2023-10-06T15:35:15.436Z,21.81
2023-10-06T15:37:42.834Z,21.78
2023-10-06T15:40:20.236Z,21.73
2023-10-06T15:43:00.567Z,21.73
2023-10-06T15:45:37.409Z,21.49
2023-10-06T15:48:05.467Z,21.55
2023-10-06T15:50:34.495Z,21.47
2023-10-06T15:53:04.461Z,21.41
2023-10-06T15:55:36.796Z,21.33
2023-10-06T15:58:05.549Z,21.24
2023-10-06T16:00:38.542Z,21.12
2023-10-06T16:03:08.655Z,21.03
2023-10-06T16:05:41.385Z,20.91
2023-10-06T16:08:12.140Z,20.81
2023-10-06T16:10:46.970Z,20.25
2023-10-06T16:13:15.820Z,20.56
2023-10-06T16:15:59.725Z,20.45
2023-10-06T16:18:33.768Z,20.27
2023-10-06T16:21:01.516Z,20.11
2023-10-06T16:23:28.687Z,20.08
2023-10-06T16:26:03.285Z,20.04
2023-10-06T16:28:31.911Z,19.97
2023-10-06T16:30:59.160Z,19.89
2023-10-06T16:33:27.713Z,19.81
2023-10-06T16:35:55.185Z,19.76
2023-10-06T16:38:22.549Z,19.65
2023-10-06T16:40:50.070Z,19.54
2023-10-06T16:43:19.414Z,19.48
2023-10-06T16:45:48.338Z,19.48
2023-10-06T16:48:16.969Z,19.41
2023-10-06T16:50:44.425Z,19.35
2023-10-06T16:53:12.229Z,19.27
2023-10-06T16:55:42.397Z,19.21
2023-10-06T16:58:10.252Z,19.11
2023-10-06T17:00:38.993Z,19.03
2023-10-06T17:03:11.070Z,18.97
2023-10-06T17:05:42.922Z,18.87
2023-10-06T17:08:09.983Z,18.80
2023-10-06T17:10:37.884Z,18.77
2023-10-06T17:13:06.445Z,18.59
2023-10-06T17:15:36.328Z,18.60
2023-10-06T17:18:04.844Z,18.54
2023-10-06T17:20:36.125Z,18.36
2023-10-06T17:23:09.964Z,18.45
2023-10-06T17:25:39.311Z,18.42
2023-10-06T17:28:09.038Z,18.32
2023-10-06T17:30:37.702Z,18.25
2023-10-06T17:33:08.526Z,18.23
2023-10-06T17:35:37.344Z,18.18
2023-10-06T17:38:05.116Z,18.12
2023-10-06T17:40:37.896Z,18.07
2023-10-06T17:43:08.519Z,17.82
2023-10-06T17:45:38.269Z,17.97
2023-10-06T17:48:08.978Z,17.97
2023-10-06T17:50:45.329Z,17.91
2023-10-06T17:53:12.615Z,17.87
2023-10-06T17:55:40.040Z,17.83
2023-10-06T17:58:06.956Z,17.77
2023-10-06T18:00:35.001Z,17.74
2023-10-06T18:03:04.580Z,17.70
2023-10-06T18:05:32.467Z,17.65
2023-10-06T18:08:02.876Z,17.62
2023-10-06T18:10:30.425Z,17.58
2023-10-06T18:12:58.103Z,17.57
2023-10-06T18:15:26.638Z,17.50
2023-10-06T18:17:59.787Z,17.43
2023-10-06T18:20:29.594Z,17.37
2023-10-06T18:22:57.442Z,17.36
2023-10-06T18:25:29.169Z,17.34
2023-10-06T18:27:56.229Z,17.26
2023-10-06T18:30:26.508Z,17.17
2023-10-06T18:32:53.978Z,17.16
2023-10-06T18:35:21.404Z,17.13
2023-10-06T18:37:48.861Z,17.11
2023-10-06T18:40:16.505Z,16.98
2023-10-06T18:42:45.122Z,17.06
2023-10-06T18:45:14.287Z,17.03
2023-10-06T18:47:43.886Z,16.98
2023-10-06T18:50:18.863Z,16.90
2023-10-06T18:52:47.265Z,16.81
2023-10-06T18:55:15.200Z,16.84
2023-10-06T18:57:46.514Z,16.82
2023-10-06T19:00:15.434Z,16.78
2023-10-06T19:02:45.330Z,16.74
2023-10-06T19:05:13.008Z,16.70
2023-10-06T19:07:40.219Z,16.66
2023-10-06T19:10:12.055Z,16.59
2023-10-06T19:12:39.298Z,16.56
2023-10-06T19:15:09.398Z,16.54
2023-10-06T19:17:37.972Z,16.55
2023-10-06T19:20:08.563Z,16.52
2023-10-06T19:22:39.434Z,16.49
2023-10-06T19:25:12.759Z,16.47
2023-10-06T19:27:39.867Z,16.44
2023-10-06T19:30:12.034Z,16.29
2023-10-06T19:32:41.653Z,16.38
2023-10-06T19:35:09.609Z,16.30
2023-10-06T19:37:37.241Z,16.30
2023-10-06T19:40:09.510Z,16.25
2023-10-06T19:42:37.378Z,16.20
2023-10-06T19:45:08.597Z,16.18
2023-10-06T19:47:38.281Z,16.13
2023-10-06T19:50:13.242Z,15.88
2023-10-06T19:52:41.645Z,16.04
2023-10-06T19:55:09.693Z,15.98
2023-10-06T19:57:37.745Z,15.99
2023-10-06T20:00:13.450Z,15.93
2023-10-06T20:02:42.568Z,15.91
2023-10-06T20:05:12.848Z,15.86
2023-10-06T20:07:40.570Z,15.82
2023-10-06T20:10:13.856Z,15.79
2023-10-06T20:12:42.273Z,15.76
2023-10-06T20:15:10.592Z,15.73
2023-10-06T20:17:37.842Z,15.66
2023-10-06T20:20:08.002Z,15.59
2023-10-06T20:22:38.346Z,15.58
2023-10-06T20:25:08.112Z,15.54
2023-10-06T20:27:35.145Z,15.52
2023-10-06T20:30:07.030Z,15.50
2023-10-06T20:32:37.943Z,15.46
2023-10-06T20:35:08.634Z,15.43
2023-10-06T20:37:36.422Z,15.42
2023-10-06T20:40:08.029Z,15.42
2023-10-06T20:42:38.179Z,15.43
2023-10-06T20:45:06.806Z,15.41
2023-10-06T20:47:35.056Z,15.40
2023-10-06T20:50:08.610Z,15.35
2023-10-06T20:52:37.363Z,15.29
2023-10-06T20:55:05.443Z,15.25
2023-10-06T20:57:32.518Z,15.25
2023-10-06T21:00:00.000Z,15.21
2023-10-06T21:02:27.823Z,15.15
2023-10-06T21:04:55.323Z,15.11
2023-10-06T21:07:23.226Z,15.06
2023-10-06T21:09:51.896Z,15.08
2023-10-06T21:12:21.907Z,15.04
2023-10-06T21:14:49.653Z,15.02
2023-10-06T21:17:17.283Z,14.98
2023-10-06T21:19:45.499Z,14.96
2023-10-06T21:22:14.768Z,14.89
2023-10-06T21:24:42.274Z,14.92
2023-10-06T21:27:10.957Z,14.90
2023-10-06T21:29:38.197Z,14.83
2023-10-06T21:32:05.527Z,14.77
2023-10-06T21:34:33.023Z,14.70
2023-10-06T21:36:59.972Z,14.66
2023-10-06T21:39:27.425Z,14.60
2023-10-06T21:41:54.572Z,14.57
2023-10-06T21:44:23.488Z,14.57
2023-10-06T21:46:50.524Z,14.59
2023-10-06T21:49:18.015Z,14.60
2023-10-06T21:51:45.403Z,14.63
2023-10-06T21:54:12.932Z,14.64
2023-10-06T21:56:39.872Z,14.64
2023-10-06T21:59:07.318Z,14.60
2023-10-06T22:01:36.541Z,14.55
2023-10-06T22:04:04.278Z,14.49
2023-10-06T22:06:31.567Z,14.45
2023-10-06T22:08:59.112Z,14.40
2023-10-06T22:11:26.362Z,14.36
2023-10-06T22:13:54.740Z,14.38
2023-10-06T22:16:22.063Z,14.36
2023-10-06T22:18:50.810Z,14.28
2023-10-06T22:21:18.152Z,14.21
2023-10-06T22:23:47.258Z,14.16
2023-10-06T22:26:14.274Z,14.09
2023-10-06T22:28:41.495Z,14.01
2023-10-06T22:31:10.431Z,13.96
2023-10-06T22:33:38.117Z,13.87
2023-10-06T22:36:07.332Z,13.80
2023-10-06T22:38:35.385Z,13.72
2023-10-06T22:41:02.438Z,13.60
2023-10-06T22:43:30.483Z,13.51
2023-10-06T22:45:57.674Z,13.35
2023-10-06T22:48:24.950Z,13.31
2023-10-06T22:50:52.082Z,13.25
2023-10-06T22:53:23.376Z,13.23
2023-10-06T22:55:52.391Z,13.12
2023-10-06T22:58:19.890Z,13.05
2023-10-06T23:00:46.900Z,12.99
2023-10-06T23:03:14.978Z,12.99
2023-10-06T23:05:42.089Z,12.97
2023-10-06T23:08:10.554Z,12.95
2023-10-06T23:10:39.064Z,12.92
2023-10-06T23:13:08.334Z,12.86
2023-10-06T23:15:35.391Z,12.80
2023-10-06T23:18:02.862Z,12.78
2023-10-06T23:20:30.267Z,12.72
2023-10-06T23:22:59.523Z,12.66
2023-10-06T23:25:37.217Z,12.56
2023-10-06T23:28:08.196Z,12.40
2023-10-06T23:30:35.813Z,12.46
2023-10-06T23:33:03.512Z,12.42
2023-10-06T23:35:30.585Z,12.36
2023-10-06T23:37:58.389Z,12.28
2023-10-06T23:40:26.665Z,12.24
2023-10-06T23:42:58.457Z,12.20
2023-10-06T23:45:32.947Z,12.18
2023-10-06T23:48:10.530Z,11.94
2023-10-06T23:50:42.308Z,12.12
2023-10-06T23:53:10.371Z,12.09
2023-10-06T23:55:43.435Z,11.96
2023-10-06T23:58:17.518Z,11.99
